sensor_id;sensor_type;location;lat;lon;timestamp;pressure;altitude;pressure_sealevel;temperature
50206;BMP280;36098;48.390;10.856;2023-02-04T00:00:00;96987.53;;;23.03
50206;BMP280;36098;48.390;10.856;2023-02-04T00:02:25;96989.44;;;23.08
50206;BMP280;36098;48.390;10.856;2023-02-04T00:04:50;96982.53;;;23.02
50206;BMP280;36098;48.390;10.856;2023-02-04T00:07:15;96984.63;;;23.00
50206;BMP280;36098;48.390;10.856;2023-02-04T00:09:42;96982.19;;;22.93
50206;BMP280;36098;48.390;10.856;2023-02-04T00:12:08;96986.91;;;22.91
50206;BMP280;36098;48.390;10.856;2023-02-04T00:14:34;96984.75;;;22.88
50206;BMP280;36098;48.390;10.856;2023-02-04T00:16:59;96991.91;;;22.93
50206;BMP280;36098;48.390;10.856;2023-02-04T00:19:25;96988.41;;;22.87
50206;BMP280;36098;48.390;10.856;2023-02-04T00:21:50;96990.81;;;22.89
50206;BMP280;36098;48.390;10.856;2023-02-04T00:24:15;96987.09;;;22.85
50206;BMP280;36098;48.390;10.856;2023-02-04T00:26:40;96989.66;;;22.80
50206;BMP280;36098;48.390;10.856;2023-02-04T00:29:05;96988.53;;;22.76
50206;BMP280;36098;48.390;10.856;2023-02-04T00:31:31;96986.19;;;22.74
50206;BMP280;36098;48.390;10.856;2023-02-04T00:33:56;96992.47;;;22.73
50206;BMP280;36098;48.390;10.856;2023-02-04T00:36:21;96996.34;;;22.66
50206;BMP280;36098;48.390;10.856;2023-02-04T00:38:46;97005.59;;;22.68
50206;BMP280;36098;48.390;10.856;2023-02-04T00:41:11;97011.03;;;22.62
50206;BMP280;36098;48.390;10.856;2023-02-04T00:43:36;97005.28;;;22.65
50206;BMP280;36098;48.390;10.856;2023-02-04T00:46:02;97010.00;;;22.63
50206;BMP280;36098;48.390;10.856;2023-02-04T00:48:27;97006.00;;;22.60
50206;BMP280;36098;48.390;10.856;2023-02-04T00:50:52;97012.09;;;22.61
50206;BMP280;36098;48.390;10.856;2023-02-04T00:53:18;97031.53;;;22.60
50206;BMP280;36098;48.390;10.856;2023-02-04T00:55:43;97034.09;;;22.55
50206;BMP280;36098;48.390;10.856;2023-02-04T00:58:08;97036.13;;;22.48
50206;BMP280;36098;48.390;10.856;2023-02-04T01:00:33;97037.28;;;22.57
50206;BMP280;36098;48.390;10.856;2023-02-04T01:02:58;97035.69;;;22.56
50206;BMP280;36098;48.390;10.856;2023-02-04T01:05:24;97031.47;;;22.55
50206;BMP280;36098;48.390;10.856;2023-02-04T01:07:49;97039.28;;;22.50
50206;BMP280;36098;48.390;10.856;2023-02-04T01:10:14;97043.19;;;22.47
50206;BMP280;36098;48.390;10.856;2023-02-04T01:12:41;97045.59;;;22.49
50206;BMP280;36098;48.390;10.856;2023-02-04T01:15:07;97047.75;;;22.52
50206;BMP280;36098;48.390;10.856;2023-02-04T01:17:32;97056.69;;;22.51
50206;BMP280;36098;48.390;10.856;2023-02-04T01:19:57;97051.91;;;22.48
50206;BMP280;36098;48.390;10.856;2023-02-04T01:22:23;97061.88;;;22.46
50206;BMP280;36098;48.390;10.856;2023-02-04T01:24:49;97051.09;;;22.47
50206;BMP280;36098;48.390;10.856;2023-02-04T01:27:14;97057.94;;;22.48
50206;BMP280;36098;48.390;10.856;2023-02-04T01:29:40;97073.19;;;22.46
50206;BMP280;36098;48.390;10.856;2023-02-04T01:32:05;97074.50;;;22.44
50206;BMP280;36098;48.390;10.856;2023-02-04T01:34:30;97076.81;;;22.40
50206;BMP280;36098;48.390;10.856;2023-02-04T01:36:55;97093.41;;;22.41
50206;BMP280;36098;48.390;10.856;2023-02-04T01:39:20;97099.56;;;22.35
50206;BMP280;36098;48.390;10.856;2023-02-04T01:41:45;97097.06;;;22.40
50206;BMP280;36098;48.390;10.856;2023-02-04T01:44:11;97102.91;;;22.42
50206;BMP280;36098;48.390;10.856;2023-02-04T01:46:36;97109.66;;;22.38
50206;BMP280;36098;48.390;10.856;2023-02-04T01:49:02;97103.81;;;22.36
50206;BMP280;36098;48.390;10.856;2023-02-04T01:51:27;97104.53;;;22.31
50206;BMP280;36098;48.390;10.856;2023-02-04T01:53:54;97113.72;;;22.29
50206;BMP280;36098;48.390;10.856;2023-02-04T01:56:21;97113.78;;;22.34
50206;BMP280;36098;48.390;10.856;2023-02-04T01:58:46;97117.44;;;22.33
50206;BMP280;36098;48.390;10.856;2023-02-04T02:01:31;97124.31;;;22.34
50206;BMP280;36098;48.390;10.856;2023-02-04T02:03:56;97125.59;;;22.31
50206;BMP280;36098;48.390;10.856;2023-02-04T02:06:22;97120.50;;;22.25
50206;BMP280;36098;48.390;10.856;2023-02-04T02:08:47;97125.44;;;22.21
50206;BMP280;36098;48.390;10.856;2023-02-04T02:11:12;97125.19;;;22.23
50206;BMP280;36098;48.390;10.856;2023-02-04T02:13:37;97118.91;;;22.24
50206;BMP280;36098;48.390;10.856;2023-02-04T02:16:03;97125.19;;;22.23
50206;BMP280;36098;48.390;10.856;2023-02-04T02:18:28;97124.31;;;22.17
50206;BMP280;36098;48.390;10.856;2023-02-04T02:20:53;97123.28;;;22.18
50206;BMP280;36098;48.390;10.856;2023-02-04T02:23:43;97131.16;;;22.18
50206;BMP280;36098;48.390;10.856;2023-02-04T02:26:10;97136.44;;;22.18
50206;BMP280;36098;48.390;10.856;2023-02-04T02:28:35;97148.22;;;22.16
50206;BMP280;36098;48.390;10.856;2023-02-04T02:31:00;97146.88;;;22.13
50206;BMP280;36098;48.390;10.856;2023-02-04T02:33:25;97153.47;;;22.16
50206;BMP280;36098;48.390;10.856;2023-02-04T02:35:50;97163.22;;;22.15
50206;BMP280;36098;48.390;10.856;2023-02-04T02:38:16;97157.41;;;22.13
50206;BMP280;36098;48.390;10.856;2023-02-04T02:40:42;97159.69;;;22.10
50206;BMP280;36098;48.390;10.856;2023-02-04T02:43:08;97149.88;;;22.05
50206;BMP280;36098;48.390;10.856;2023-02-04T02:45:33;97162.34;;;22.10
50206;BMP280;36098;48.390;10.856;2023-02-04T02:47:59;97167.19;;;22.18
50206;BMP280;36098;48.390;10.856;2023-02-04T02:50:25;97167.94;;;22.13
50206;BMP280;36098;48.390;10.856;2023-02-04T02:52:51;97173.66;;;22.10
50206;BMP280;36098;48.390;10.856;2023-02-04T02:55:17;97169.44;;;22.09
50206;BMP280;36098;48.390;10.856;2023-02-04T02:57:43;97163.69;;;22.12
50206;BMP280;36098;48.390;10.856;2023-02-04T03:00:27;97158.34;;;22.07
50206;BMP280;36098;48.390;10.856;2023-02-04T03:03:36;97160.88;;;22.02
50206;BMP280;36098;48.390;10.856;2023-02-04T03:05:42;97159.06;;;22.03
50206;BMP280;36098;48.390;10.856;2023-02-04T03:08:09;97165.09;;;22.03
50206;BMP280;36098;48.390;10.856;2023-02-04T03:10:36;97168.28;;;22.05
50206;BMP280;36098;48.390;10.856;2023-02-04T03:13:01;97178.50;;;22.02
50206;BMP280;36098;48.390;10.856;2023-02-04T03:15:27;97179.28;;;22.02
50206;BMP280;36098;48.390;10.856;2023-02-04T03:17:52;97180.59;;;22.00
50206;BMP280;36098;48.390;10.856;2023-02-04T03:20:20;97186.06;;;21.98
50206;BMP280;36098;48.390;10.856;2023-02-04T03:22:47;97191.00;;;21.95
50206;BMP280;36098;48.390;10.856;2023-02-04T03:25:12;97186.78;;;21.94
50206;BMP280;36098;48.390;10.856;2023-02-04T03:27:37;97185.97;;;21.93
50206;BMP280;36098;48.390;10.856;2023-02-04T03:30:02;97192.28;;;21.92
50206;BMP280;36098;48.390;10.856;2023-02-04T03:32:27;97200.97;;;21.93
50206;BMP280;36098;48.390;10.856;2023-02-04T03:34:53;97215.13;;;21.92
50206;BMP280;36098;48.390;10.856;2023-02-04T03:37:18;97219.28;;;21.88
50206;BMP280;36098;48.390;10.856;2023-02-04T03:39:43;97222.34;;;21.96
50206;BMP280;36098;48.390;10.856;2023-02-04T03:42:08;97226.13;;;21.89
50206;BMP280;36098;48.390;10.856;2023-02-04T03:44:33;97237.22;;;21.91
50206;BMP280;36098;48.390;10.856;2023-02-04T03:46:58;97235.16;;;21.93
50206;BMP280;36098;48.390;10.856;2023-02-04T03:49:24;97239.84;;;21.91
50206;BMP280;36098;48.390;10.856;2023-02-04T03:51:50;97235.53;;;21.85
50206;BMP280;36098;48.390;10.856;2023-02-04T03:54:15;97240.78;;;21.85
50206;BMP280;36098;48.390;10.856;2023-02-04T03:56:40;97248.13;;;21.83
50206;BMP280;36098;48.390;10.856;2023-02-04T03:59:06;97242.38;;;21.86
50206;BMP280;36098;48.390;10.856;2023-02-04T04:01:31;97238.38;;;21.83
50206;BMP280;36098;48.390;10.856;2023-02-04T04:03:56;97248.34;;;21.81
50206;BMP280;36098;48.390;10.856;2023-02-04T04:06:21;97248.91;;;21.83
50206;BMP280;36098;48.390;10.856;2023-02-04T04:08:46;97253.38;;;21.83
50206;BMP280;36098;48.390;10.856;2023-02-04T04:11:12;97253.03;;;21.79
50206;BMP280;36098;48.390;10.856;2023-02-04T04:13:37;97260.03;;;21.74
50206;BMP280;36098;48.390;10.856;2023-02-04T04:16:02;97260.38;;;21.77
50206;BMP280;36098;48.390;10.856;2023-02-04T04:18:28;97264.38;;;21.80
50206;BMP280;36098;48.390;10.856;2023-02-04T04:20:54;97275.81;;;21.74
50206;BMP280;36098;48.390;10.856;2023-02-04T04:23:19;97269.50;;;21.75
50206;BMP280;36098;48.390;10.856;2023-02-04T04:25:44;97271.09;;;21.76
50206;BMP280;36098;48.390;10.856;2023-02-04T04:28:10;97282.91;;;21.73
50206;BMP280;36098;48.390;10.856;2023-02-04T04:30:35;97277.38;;;21.75
50206;BMP280;36098;48.390;10.856;2023-02-04T04:33:00;97282.66;;;21.75
50206;BMP280;36098;48.390;10.856;2023-02-04T04:35:25;97275.22;;;21.72
50206;BMP280;36098;48.390;10.856;2023-02-04T04:37:50;97289.41;;;21.71
50206;BMP280;36098;48.390;10.856;2023-02-04T04:40:16;97289.97;;;21.73
50206;BMP280;36098;48.390;10.856;2023-02-04T04:42:41;97297.88;;;21.73
50206;BMP280;36098;48.390;10.856;2023-02-04T04:45:07;97296.06;;;21.73
50206;BMP280;36098;48.390;10.856;2023-02-04T04:47:32;97307.34;;;21.74
50206;BMP280;36098;48.390;10.856;2023-02-04T04:49:57;97300.75;;;21.71
50206;BMP280;36098;48.390;10.856;2023-02-04T04:52:22;97302.09;;;21.74
50206;BMP280;36098;48.390;10.856;2023-02-04T04:54:48;97308.94;;;21.75
50206;BMP280;36098;48.390;10.856;2023-02-04T04:57:13;97315.81;;;21.76
50206;BMP280;36098;48.390;10.856;2023-02-04T04:59:38;97321.53;;;21.73
50206;BMP280;36098;48.390;10.856;2023-02-04T05:02:03;97323.69;;;21.76
50206;BMP280;36098;48.390;10.856;2023-02-04T05:04:28;97323.13;;;21.74
50206;BMP280;36098;48.390;10.856;2023-02-04T05:06:53;97325.53;;;21.75
50206;BMP280;36098;48.390;10.856;2023-02-04T05:09:19;97331.25;;;21.72
50206;BMP280;36098;48.390;10.856;2023-02-04T05:11:44;97327.81;;;21.72
50206;BMP280;36098;48.390;10.856;2023-02-04T05:14:09;97333.31;;;21.70
50206;BMP280;36098;48.390;10.856;2023-02-04T05:16:34;97334.31;;;21.69
50206;BMP280;36098;48.390;10.856;2023-02-04T05:18:59;97334.56;;;21.68
50206;BMP280;36098;48.390;10.856;2023-02-04T05:21:24;97340.63;;;21.68
50206;BMP280;36098;48.390;10.856;2023-02-04T05:23:50;97350.00;;;21.64
50206;BMP280;36098;48.390;10.856;2023-02-04T05:26:15;97350.00;;;21.64
50206;BMP280;36098;48.390;10.856;2023-02-04T05:28:40;97352.72;;;21.69
50206;BMP280;36098;48.390;10.856;2023-02-04T05:31:05;97355.03;;;21.66
50206;BMP280;36098;48.390;10.856;2023-02-04T05:33:30;97352.41;;;21.66
50206;BMP280;36098;48.390;10.856;2023-02-04T05:35:55;97354.91;;;21.61
50206;BMP280;36098;48.390;10.856;2023-02-04T05:38:21;97349.06;;;21.59
50206;BMP280;36098;48.390;10.856;2023-02-04T05:40:46;97349.66;;;21.61
50206;BMP280;36098;48.390;10.856;2023-02-04T05:43:11;97352.88;;;21.63
50206;BMP280;36098;48.390;10.856;2023-02-04T05:45:36;97354.09;;;21.60
50206;BMP280;36098;48.390;10.856;2023-02-04T05:48:01;97368.06;;;21.61
50206;BMP280;36098;48.390;10.856;2023-02-04T05:50:27;97367.84;;;21.62
50206;BMP280;36098;48.390;10.856;2023-02-04T05:52:52;97364.81;;;21.59
50206;BMP280;36098;48.390;10.856;2023-02-04T05:55:17;97369.97;;;21.54
50206;BMP280;36098;48.390;10.856;2023-02-04T05:57:42;97363.13;;;21.53
50206;BMP280;36098;48.390;10.856;2023-02-04T06:00:07;97378.13;;;21.52
50206;BMP280;36098;48.390;10.856;2023-02-04T06:02:33;97375.47;;;21.52
50206;BMP280;36098;48.390;10.856;2023-02-04T06:04:58;97377.97;;;21.47
50206;BMP280;36098;48.390;10.856;2023-02-04T06:07:23;97384.81;;;21.60
50206;BMP280;36098;48.390;10.856;2023-02-04T06:09:49;97384.63;;;21.73
50206;BMP280;36098;48.390;10.856;2023-02-04T06:12:14;97393.75;;;21.36
50206;BMP280;36098;48.390;10.856;2023-02-04T06:14:39;97405.81;;;21.14
50206;BMP280;36098;48.390;10.856;2023-02-04T06:17:04;97395.56;;;21.13
50206;BMP280;36098;48.390;10.856;2023-02-04T06:19:29;97396.03;;;21.21
50206;BMP280;36098;48.390;10.856;2023-02-04T06:21:54;97396.03;;;21.33
50206;BMP280;36098;48.390;10.856;2023-02-04T06:24:20;97397.97;;;21.48
50206;BMP280;36098;48.390;10.856;2023-02-04T06:26:45;97400.78;;;21.65
50206;BMP280;36098;48.390;10.856;2023-02-04T06:29:10;97401.53;;;21.77
50206;BMP280;36098;48.390;10.856;2023-02-04T06:31:35;97410.81;;;21.91
50206;BMP280;36098;48.390;10.856;2023-02-04T06:34:02;97410.00;;;22.02
50206;BMP280;36098;48.390;10.856;2023-02-04T06:36:28;97421.19;;;22.09
50206;BMP280;36098;48.390;10.856;2023-02-04T06:38:53;97423.81;;;22.20
50206;BMP280;36098;48.390;10.856;2023-02-04T06:41:18;97427.91;;;22.28
50206;BMP280;36098;48.390;10.856;2023-02-04T06:43:43;97432.56;;;22.37
50206;BMP280;36098;48.390;10.856;2023-02-04T06:46:09;97437.19;;;22.42
50206;BMP280;36098;48.390;10.856;2023-02-04T06:48:34;97439.66;;;22.48
50206;BMP280;36098;48.390;10.856;2023-02-04T06:50:59;97442.63;;;22.52
50206;BMP280;36098;48.390;10.856;2023-02-04T06:53:24;97453.03;;;22.58
50206;BMP280;36098;48.390;10.856;2023-02-04T06:55:49;97455.28;;;22.66
50206;BMP280;36098;48.390;10.856;2023-02-04T06:58:16;97459.16;;;22.75
50206;BMP280;36098;48.390;10.856;2023-02-04T07:00:41;97465.00;;;22.77
50206;BMP280;36098;48.390;10.856;2023-02-04T07:03:06;97465.97;;;22.88
50206;BMP280;36098;48.390;10.856;2023-02-04T07:05:32;97475.00;;;22.92
50206;BMP280;36098;48.390;10.856;2023-02-04T07:07:57;97475.69;;;22.99
50206;BMP280;36098;48.390;10.856;2023-02-04T07:10:22;97475.22;;;23.02
50206;BMP280;36098;48.390;10.856;2023-02-04T07:12:48;97465.78;;;23.06
50206;BMP280;36098;48.390;10.856;2023-02-04T07:15:13;97477.25;;;23.11
50206;BMP280;36098;48.390;10.856;2023-02-04T07:17:38;97485.47;;;23.15
50206;BMP280;36098;48.390;10.856;2023-02-04T07:20:03;97487.97;;;23.21
50206;BMP280;36098;48.390;10.856;2023-02-04T07:22:28;97486.16;;;23.22
50206;BMP280;36098;48.390;10.856;2023-02-04T07:24:54;97485.19;;;23.27
50206;BMP280;36098;48.390;10.856;2023-02-04T07:27:19;97494.00;;;23.33
50206;BMP280;36098;48.390;10.856;2023-02-04T07:29:44;97495.91;;;23.37
50206;BMP280;36098;48.390;10.856;2023-02-04T07:32:09;97495.44;;;23.40
50206;BMP280;36098;48.390;10.856;2023-02-04T07:34:34;97496.56;;;23.44
50206;BMP280;36098;48.390;10.856;2023-02-04T07:37:00;97503.75;;;23.49
50206;BMP280;36098;48.390;10.856;2023-02-04T07:39:25;97508.84;;;23.55
50206;BMP280;36098;48.390;10.856;2023-02-04T07:41:50;97502.88;;;23.60
50206;BMP280;36098;48.390;10.856;2023-02-04T07:44:15;97498.50;;;23.65
50206;BMP280;36098;48.390;10.856;2023-02-04T07:46:40;97509.38;;;23.69
50206;BMP280;36098;48.390;10.856;2023-02-04T07:49:06;97510.81;;;23.76
50206;BMP280;36098;48.390;10.856;2023-02-04T07:51:31;97507.69;;;23.79
50206;BMP280;36098;48.390;10.856;2023-02-04T07:53:56;97521.91;;;23.78
50206;BMP280;36098;48.390;10.856;2023-02-04T07:56:21;97522.97;;;23.77
50206;BMP280;36098;48.390;10.856;2023-02-04T07:58:46;97528.25;;;23.77
50206;BMP280;36098;48.390;10.856;2023-02-04T08:01:12;97531.31;;;23.74
50206;BMP280;36098;48.390;10.856;2023-02-04T08:03:37;97525.00;;;23.75
50206;BMP280;36098;48.390;10.856;2023-02-04T08:06:02;97529.03;;;23.78
50206;BMP280;36098;48.390;10.856;2023-02-04T08:08:27;97529.13;;;23.83
50206;BMP280;36098;48.390;10.856;2023-02-04T08:10:52;97534.25;;;23.89
50206;BMP280;36098;48.390;10.856;2023-02-04T08:13:17;97538.25;;;23.92
50206;BMP280;36098;48.390;10.856;2023-02-04T08:15:43;97543.28;;;23.93
50206;BMP280;36098;48.390;10.856;2023-02-04T08:18:08;97541.13;;;23.90
50206;BMP280;36098;48.390;10.856;2023-02-04T08:20:33;97546.31;;;23.85
50206;BMP280;36098;48.390;10.856;2023-02-04T08:22:58;97548.84;;;23.80
50206;BMP280;36098;48.390;10.856;2023-02-04T08:25:23;97552.44;;;23.74
50206;BMP280;36098;48.390;10.856;2023-02-04T08:27:49;97548.69;;;23.70
50206;BMP280;36098;48.390;10.856;2023-02-04T08:30:14;97546.75;;;23.66
50206;BMP280;36098;48.390;10.856;2023-02-04T08:32:39;97547.56;;;23.66
50206;BMP280;36098;48.390;10.856;2023-02-04T08:35:05;97560.97;;;23.65
50206;BMP280;36098;48.390;10.856;2023-02-04T08:37:30;97563.31;;;23.61
50206;BMP280;36098;48.390;10.856;2023-02-04T08:39:55;97565.47;;;23.64
50206;BMP280;36098;48.390;10.856;2023-02-04T08:42:20;97574.78;;;23.83
50206;BMP280;36098;48.390;10.856;2023-02-04T08:44:46;97571.47;;;23.76
50206;BMP280;36098;48.390;10.856;2023-02-04T08:47:11;97567.56;;;23.79
50206;BMP280;36098;48.390;10.856;2023-02-04T08:49:36;97574.50;;;23.68
50206;BMP280;36098;48.390;10.856;2023-02-04T08:52:02;97580.66;;;23.57
50206;BMP280;36098;48.390;10.856;2023-02-04T08:54:28;97571.22;;;23.61
50206;BMP280;36098;48.390;10.856;2023-02-04T08:56:53;97584.13;;;23.46
50206;BMP280;36098;48.390;10.856;2023-02-04T08:59:19;97592.25;;;23.45
50206;BMP280;36098;48.390;10.856;2023-02-04T09:01:46;97585.53;;;23.65
50206;BMP280;36098;48.390;10.856;2023-02-04T09:04:13;97586.41;;;23.71
50206;BMP280;36098;48.390;10.856;2023-02-04T09:06:38;97587.31;;;23.76
50206;BMP280;36098;48.390;10.856;2023-02-04T09:09:03;97591.09;;;23.97
50206;BMP280;36098;48.390;10.856;2023-02-04T09:11:28;97582.03;;;23.76
50206;BMP280;36098;48.390;10.856;2023-02-04T09:13:53;97584.66;;;23.76
50206;BMP280;36098;48.390;10.856;2023-02-04T09:16:20;97585.59;;;23.98
50206;BMP280;36098;48.390;10.856;2023-02-04T09:18:45;97588.25;;;23.98
50206;BMP280;36098;48.390;10.856;2023-02-04T09:21:11;97596.47;;;23.57
50206;BMP280;36098;48.390;10.856;2023-02-04T09:23:36;97598.63;;;23.60
50206;BMP280;36098;48.390;10.856;2023-02-04T09:26:01;97585.69;;;23.75
50206;BMP280;36098;48.390;10.856;2023-02-04T09:28:28;97596.91;;;23.54
50206;BMP280;36098;48.390;10.856;2023-02-04T09:30:53;97595.28;;;23.37
50206;BMP280;36098;48.390;10.856;2023-02-04T09:33:18;97599.19;;;23.34
50206;BMP280;36098;48.390;10.856;2023-02-04T09:35:44;97591.09;;;23.25
50206;BMP280;36098;48.390;10.856;2023-02-04T09:38:09;97597.28;;;23.30
50206;BMP280;36098;48.390;10.856;2023-02-04T09:40:36;97597.75;;;23.16
50206;BMP280;36098;48.390;10.856;2023-02-04T09:43:04;97604.31;;;23.13
50206;BMP280;36098;48.390;10.856;2023-02-04T09:45:31;97606.22;;;23.06
50206;BMP280;36098;48.390;10.856;2023-02-04T09:47:57;97620.13;;;23.02
50206;BMP280;36098;48.390;10.856;2023-02-04T09:50:23;97625.97;;;23.04
50206;BMP280;36098;48.390;10.856;2023-02-04T09:52:50;97627.09;;;23.08
50206;BMP280;36098;48.390;10.856;2023-02-04T09:55:17;97634.69;;;23.43
50206;BMP280;36098;48.390;10.856;2023-02-04T09:57:42;97638.53;;;23.25
50206;BMP280;36098;48.390;10.856;2023-02-04T10:00:15;97648.75;;;23.21
50206;BMP280;36098;48.390;10.856;2023-02-04T10:02:41;97641.09;;;23.20
50206;BMP280;36098;48.390;10.856;2023-02-04T10:05:16;97641.09;;;23.20
50206;BMP280;36098;48.390;10.856;2023-02-04T10:07:42;97641.09;;;23.20
50206;BMP280;36098;48.390;10.856;2023-02-04T10:10:18;97641.53;;;23.17
50206;BMP280;36098;48.390;10.856;2023-02-04T10:12:44;97640.28;;;23.19
50206;BMP280;36098;48.390;10.856;2023-02-04T10:15:16;97641.66;;;23.22
50206;BMP280;36098;48.390;10.856;2023-02-04T10:17:48;97638.31;;;23.15
50206;BMP280;36098;48.390;10.856;2023-02-04T10:20:15;97635.34;;;23.23
50206;BMP280;36098;48.390;10.856;2023-02-04T10:22:41;97645.16;;;23.38
50206;BMP280;36098;48.390;10.856;2023-02-04T10:25:12;97641.78;;;23.43
50206;BMP280;36098;48.390;10.856;2023-02-04T10:27:48;97641.00;;;23.42
50206;BMP280;36098;48.390;10.856;2023-02-04T10:30:18;97644.03;;;23.62
50206;BMP280;36098;48.390;10.856;2023-02-04T10:32:44;97640.28;;;23.75
50206;BMP280;36098;48.390;10.856;2023-02-04T10:35:11;97646.66;;;23.90
50206;BMP280;36098;48.390;10.856;2023-02-04T10:37:36;97639.56;;;24.07
50206;BMP280;36098;48.390;10.856;2023-02-04T10:40:02;97639.91;;;24.27
50206;BMP280;36098;48.390;10.856;2023-02-04T10:42:28;97645.75;;;24.13
50206;BMP280;36098;48.390;10.856;2023-02-04T10:44:54;97658.06;;;23.79
50206;BMP280;36098;48.390;10.856;2023-02-04T10:47:23;97657.47;;;23.49
50206;BMP280;36098;48.390;10.856;2023-02-04T10:49:55;97663.19;;;23.58
50206;BMP280;36098;48.390;10.856;2023-02-04T10:52:22;97660.59;;;23.74
50206;BMP280;36098;48.390;10.856;2023-02-04T10:54:48;97655.16;;;23.81
50206;BMP280;36098;48.390;10.856;2023-02-04T10:57:21;97655.63;;;23.61
50206;BMP280;36098;48.390;10.856;2023-02-04T10:59:48;97653.06;;;23.66
50206;BMP280;36098;48.390;10.856;2023-02-04T11:04:52;97641.94;;;23.64
50206;BMP280;36098;48.390;10.856;2023-02-04T11:07:17;97649.66;;;23.54
50206;BMP280;36098;48.390;10.856;2023-02-04T11:09:43;97647.13;;;23.59
50206;BMP280;36098;48.390;10.856;2023-02-04T11:12:21;97647.22;;;23.64
50206;BMP280;36098;48.390;10.856;2023-02-04T11:14:56;97654.59;;;23.79
50206;BMP280;36098;48.390;10.856;2023-02-04T11:17:27;97657.28;;;23.95
50206;BMP280;36098;48.390;10.856;2023-02-04T11:19:53;97656.81;;;23.70
50206;BMP280;36098;48.390;10.856;2023-02-04T11:22:23;97656.13;;;23.75
50206;BMP280;36098;48.390;10.856;2023-02-04T11:24:48;97659.53;;;23.75
50206;BMP280;36098;48.390;10.856;2023-02-04T11:27:21;97657.78;;;23.92
50206;BMP280;36098;48.390;10.856;2023-02-04T11:29:47;97657.72;;;23.76
50206;BMP280;36098;48.390;10.856;2023-02-04T11:32:29;97649.47;;;23.72
50206;BMP280;36098;48.390;10.856;2023-02-04T11:35:05;97653.72;;;23.73
50206;BMP280;36098;48.390;10.856;2023-02-04T11:37:35;97650.00;;;23.86
50206;BMP280;36098;48.390;10.856;2023-02-04T11:40:00;97645.84;;;23.62
50206;BMP280;36098;48.390;10.856;2023-02-04T11:42:30;97646.84;;;23.44
50206;BMP280;36098;48.390;10.856;2023-02-04T11:45:10;97644.88;;;23.51
50206;BMP280;36098;48.390;10.856;2023-02-04T11:47:36;97637.34;;;23.43
50206;BMP280;36098;48.390;10.856;2023-02-04T11:50:04;97639.28;;;23.36
50206;BMP280;36098;48.390;10.856;2023-02-04T11:52:34;97634.53;;;23.61
50206;BMP280;36098;48.390;10.856;2023-02-04T11:55:00;97638.69;;;23.74
50206;BMP280;36098;48.390;10.856;2023-02-04T11:57:25;97637.16;;;23.89
50206;BMP280;36098;48.390;10.856;2023-02-04T11:59:51;97628.53;;;23.94
50206;BMP280;36098;48.390;10.856;2023-02-04T12:02:18;97639.94;;;23.83
50206;BMP280;36098;48.390;10.856;2023-02-04T12:04:54;97635.00;;;23.58
50206;BMP280;36098;48.390;10.856;2023-02-04T12:07:24;97641.50;;;23.39
50206;BMP280;36098;48.390;10.856;2023-02-04T12:09:49;97634.03;;;23.64
50206;BMP280;36098;48.390;10.856;2023-02-04T12:12:24;97636.75;;;23.69
50206;BMP280;36098;48.390;10.856;2023-02-04T12:15:03;97631.69;;;23.79
50206;BMP280;36098;48.390;10.856;2023-02-04T12:17:33;97642.72;;;23.76
50206;BMP280;36098;48.390;10.856;2023-02-04T12:19:58;97635.56;;;24.05
50206;BMP280;36098;48.390;10.856;2023-02-04T12:22:23;97637.00;;;24.12
50206;BMP280;36098;48.390;10.856;2023-02-04T12:24:48;97632.22;;;24.09
50206;BMP280;36098;48.390;10.856;2023-02-04T12:27:13;97636.19;;;23.95
50206;BMP280;36098;48.390;10.856;2023-02-04T12:29:38;97631.09;;;24.05
50206;BMP280;36098;48.390;10.856;2023-02-04T12:32:04;97640.28;;;23.75
50206;BMP280;36098;48.390;10.856;2023-02-04T12:34:29;97647.59;;;23.56
50206;BMP280;36098;48.390;10.856;2023-02-04T12:36:54;97641.78;;;23.43
50206;BMP280;36098;48.390;10.856;2023-02-04T12:39:19;97643.34;;;23.67
50206;BMP280;36098;48.390;10.856;2023-02-04T12:41:44;97648.63;;;23.55
50206;BMP280;36098;48.390;10.856;2023-02-04T12:44:10;97649.09;;;23.52
50206;BMP280;36098;48.390;10.856;2023-02-04T12:46:35;97657.69;;;23.59
50206;BMP280;36098;48.390;10.856;2023-02-04T12:49:00;97649.94;;;23.69
50206;BMP280;36098;48.390;10.856;2023-02-04T12:51:26;97649.44;;;23.56
50206;BMP280;36098;48.390;10.856;2023-02-04T12:53:51;97653.16;;;23.43
50206;BMP280;36098;48.390;10.856;2023-02-04T12:56:17;97653.53;;;23.63
50206;BMP280;36098;48.390;10.856;2023-02-04T12:58:44;97659.78;;;23.46
50206;BMP280;36098;48.390;10.856;2023-02-04T13:01:09;97664.09;;;23.63
50206;BMP280;36098;48.390;10.856;2023-02-04T13:03:35;97660.22;;;23.54
50206;BMP280;36098;48.390;10.856;2023-02-04T13:06:00;97667.28;;;23.37
50206;BMP280;36098;48.390;10.856;2023-02-04T13:08:25;97678.56;;;23.22
50206;BMP280;36098;48.390;10.856;2023-02-04T13:10:50;97665.69;;;23.25
50206;BMP280;36098;48.390;10.856;2023-02-04T13:13:19;97668.28;;;23.36
50206;BMP280;36098;48.390;10.856;2023-02-04T13:15:45;97670.44;;;23.51
50206;BMP280;36098;48.390;10.856;2023-02-04T13:18:10;97677.16;;;23.30
50206;BMP280;36098;48.390;10.856;2023-02-04T13:20:35;97679.81;;;23.19
50206;BMP280;36098;48.390;10.856;2023-02-04T13:23:00;97670.84;;;23.31
50206;BMP280;36098;48.390;10.856;2023-02-04T13:25:26;97680.47;;;23.37
50206;BMP280;36098;48.390;10.856;2023-02-04T13:27:51;97669.56;;;23.34
50206;BMP280;36098;48.390;10.856;2023-02-04T13:30:16;97676.31;;;23.41
50206;BMP280;36098;48.390;10.856;2023-02-04T13:32:41;97674.47;;;23.42
50206;BMP280;36098;48.390;10.856;2023-02-04T13:35:07;97670.56;;;23.44
50206;BMP280;36098;48.390;10.856;2023-02-04T13:37:32;97672.13;;;23.29
50206;BMP280;36098;48.390;10.856;2023-02-04T13:39:57;97678.06;;;23.36
50206;BMP280;36098;48.390;10.856;2023-02-04T13:42:23;97675.41;;;23.36
50206;BMP280;36098;48.390;10.856;2023-02-04T13:44:48;97686.97;;;23.46
50206;BMP280;36098;48.390;10.856;2023-02-04T13:47:13;97696.94;;;23.44
50206;BMP280;36098;48.390;10.856;2023-02-04T13:49:38;97697.59;;;23.51
50206;BMP280;36098;48.390;10.856;2023-02-04T13:52:03;97692.91;;;23.53